sensor_id;sensor_type;location;lat;lon;timestamp;pressure;altitude;pressure_sealevel;temperature;humidity
59106;BME280;44891;50.204;8.132;2023-04-30T00:03:06;98755.66;;;9.99;99.61
59106;BME280;44891;50.204;8.132;2023-04-30T00:07:08;98753.25;;;9.97;99.87
59106;BME280;44891;50.204;8.132;2023-04-30T00:11:11;98755.94;;;10.09;98.95
59106;BME280;44891;50.204;8.132;2023-04-30T00:15:13;98747.78;;;9.99;98.84
59106;BME280;44891;50.204;8.132;2023-04-30T00:19:15;98754.63;;;10.00;99.02
59106;BME280;44891;50.204;8.132;2023-04-30T00:23:16;98754.78;;;10.05;98.82
59106;BME280;44891;50.204;8.132;2023-04-30T00:27:20;98748.50;;;10.06;97.83
59106;BME280;44891;50.204;8.132;2023-04-30T00:31:22;98751.13;;;10.06;97.82
59106;BME280;44891;50.204;8.132;2023-04-30T00:35:23;98760.53;;;9.95;99.31
59106;BME280;44891;50.204;8.132;2023-04-30T00:39:25;98761.00;;;9.92;99.45
59106;BME280;44891;50.204;8.132;2023-04-30T00:43:29;98757.34;;;9.75;100.00
59106;BME280;44891;50.204;8.132;2023-04-30T00:47:31;98756.97;;;9.90;100.00
59106;BME280;44891;50.204;8.132;2023-04-30T00:51:33;98761.38;;;9.77;100.00
59106;BME280;44891;50.204;8.132;2023-04-30T00:55:36;98762.97;;;9.78;100.00
59106;BME280;44891;50.204;8.132;2023-04-30T00:59:39;98762.09;;;9.85;100.00
59106;BME280;44891;50.204;8.132;2023-04-30T01:03:42;98768.56;;;9.82;100.00
59106;BME280;44891;50.204;8.132;2023-04-30T01:07:44;98767.25;;;9.91;100.00
59106;BME280;44891;50.204;8.132;2023-04-30T01:11:48;98766.31;;;9.86;100.00
59106;BME280;44891;50.204;8.132;2023-04-30T01:15:58;98765.44;;;9.92;99.69
59106;BME280;44891;50.204;8.132;2023-04-30T01:20:00;98766.00;;;9.94;98.96
59106;BME280;44891;50.204;8.132;2023-04-30T01:24:16;98764.50;;;9.86;99.57
59106;BME280;44891;50.204;8.132;2023-04-30T01:28:21;98764.00;;;9.77;100.00
59106;BME280;44891;50.204;8.132;2023-04-30T01:32:24;98755.28;;;9.77;100.00
59106;BME280;44891;50.204;8.132;2023-04-30T01:36:34;98749.69;;;9.73;100.00
59106;BME280;44891;50.204;8.132;2023-04-30T01:40:42;98753.78;;;9.69;100.00
59106;BME280;44891;50.204;8.132;2023-04-30T01:44:52;98754.28;;;9.41;100.00
59106;BME280;44891;50.204;8.132;2023-04-30T01:48:59;98754.34;;;9.10;100.00
59106;BME280;44891;50.204;8.132;2023-04-30T01:53:05;98756.06;;;8.97;100.00
59106;BME280;44891;50.204;8.132;2023-04-30T01:57:10;98758.88;;;8.71;100.00
59106;BME280;44891;50.204;8.132;2023-04-30T02:01:25;98769.44;;;8.89;100.00
59106;BME280;44891;50.204;8.132;2023-04-30T02:05:27;98764.41;;;8.88;99.37
59106;BME280;44891;50.204;8.132;2023-04-30T02:09:30;98774.50;;;8.84;99.23
59106;BME280;44891;50.204;8.132;2023-04-30T02:13:31;98778.72;;;8.60;98.72
59106;BME280;44891;50.204;8.132;2023-04-30T02:17:35;98782.22;;;8.48;100.00
59106;BME280;44891;50.204;8.132;2023-04-30T02:21:36;98785.53;;;8.61;99.62
59106;BME280;44891;50.204;8.132;2023-04-30T02:25:39;98781.16;;;8.55;99.60
59106;BME280;44891;50.204;8.132;2023-04-30T02:29:41;98780.91;;;8.63;99.10
59106;BME280;44891;50.204;8.132;2023-04-30T02:33:44;98772.72;;;8.53;99.95
59106;BME280;44891;50.204;8.132;2023-04-30T02:37:46;98775.69;;;8.57;100.00
59106;BME280;44891;50.204;8.132;2023-04-30T02:41:48;98773.13;;;8.50;100.00
59106;BME280;44891;50.204;8.132;2023-04-30T02:45:50;98779.38;;;8.49;100.00
59106;BME280;44891;50.204;8.132;2023-04-30T02:49:53;98775.16;;;8.48;99.35
59106;BME280;44891;50.204;8.132;2023-04-30T02:53:55;98776.75;;;8.49;97.89
59106;BME280;44891;50.204;8.132;2023-04-30T02:57:57;98770.59;;;8.30;99.01
59106;BME280;44891;50.204;8.132;2023-04-30T03:01:58;98777.63;;;8.30;98.80
59106;BME280;44891;50.204;8.132;2023-04-30T03:06:02;98778.56;;;8.04;99.67
59106;BME280;44891;50.204;8.132;2023-04-30T03:10:04;98777.94;;;8.08;99.49
59106;BME280;44891;50.204;8.132;2023-04-30T03:14:07;98778.59;;;7.97;99.08
59106;BME280;44891;50.204;8.132;2023-04-30T03:18:09;98779.63;;;7.83;99.49
59106;BME280;44891;50.204;8.132;2023-04-30T03:22:12;98788.09;;;7.78;100.00
59106;BME280;44891;50.204;8.132;2023-04-30T03:26:14;98780.84;;;7.87;99.42
59106;BME280;44891;50.204;8.132;2023-04-30T03:30:16;98769.19;;;7.76;99.43
59106;BME280;44891;50.204;8.132;2023-04-30T03:34:17;98773.66;;;7.69;98.89
59106;BME280;44891;50.204;8.132;2023-04-30T03:38:21;98775.03;;;7.72;98.45
59106;BME280;44891;50.204;8.132;2023-04-30T03:42:23;98771.84;;;7.70;97.07
59106;BME280;44891;50.204;8.132;2023-04-30T03:46:24;98773.69;;;7.49;97.21
59106;BME280;44891;50.204;8.132;2023-04-30T03:50:26;98761.09;;;7.00;99.66
59106;BME280;44891;50.204;8.132;2023-04-30T03:54:29;98766.72;;;6.97;100.00
59106;BME280;44891;50.204;8.132;2023-04-30T03:58:33;98767.72;;;6.96;99.89
59106;BME280;44891;50.204;8.132;2023-04-30T04:02:35;98748.84;;;7.00;98.68
59106;BME280;44891;50.204;8.132;2023-04-30T04:06:37;98764.31;;;6.95;98.52
59106;BME280;44891;50.204;8.132;2023-04-30T04:10:40;98766.28;;;6.93;97.72
59106;BME280;44891;50.204;8.132;2023-04-30T04:14:43;98769.09;;;6.72;98.41
59106;BME280;44891;50.204;8.132;2023-04-30T04:18:45;98775.34;;;6.77;98.95
59106;BME280;44891;50.204;8.132;2023-04-30T04:22:46;98773.75;;;6.83;96.99
59106;BME280;44891;50.204;8.132;2023-04-30T04:26:50;98784.38;;;6.75;97.24
59106;BME280;44891;50.204;8.132;2023-04-30T04:30:52;98786.59;;;6.78;96.99
59106;BME280;44891;50.204;8.132;2023-04-30T04:34:55;98785.56;;;6.66;97.08
59106;BME280;44891;50.204;8.132;2023-04-30T04:38:56;98790.38;;;6.62;97.09
59106;BME280;44891;50.204;8.132;2023-04-30T04:43:03;98786.34;;;6.60;97.10
59106;BME280;44891;50.204;8.132;2023-04-30T04:47:05;98795.78;;;6.54;97.49
59106;BME280;44891;50.204;8.132;2023-04-30T04:51:08;98791.78;;;6.65;96.55
59106;BME280;44891;50.204;8.132;2023-04-30T04:55:10;98795.19;;;6.65;96.02
59106;BME280;44891;50.204;8.132;2023-04-30T04:59:15;98793.22;;;6.74;96.25
59106;BME280;44891;50.204;8.132;2023-04-30T05:03:18;98798.63;;;6.86;96.12
59106;BME280;44891;50.204;8.132;2023-04-30T05:07:20;98798.06;;;7.10;95.89
59106;BME280;44891;50.204;8.132;2023-04-30T05:11:22;98801.88;;;7.01;96.18
59106;BME280;44891;50.204;8.132;2023-04-30T05:15:27;98802.69;;;7.15;96.28
59106;BME280;44891;50.204;8.132;2023-04-30T05:19:29;98796.84;;;7.06;95.95
59106;BME280;44891;50.204;8.132;2023-04-30T05:23:30;98808.50;;;7.10;95.63
59106;BME280;44891;50.204;8.132;2023-04-30T05:27:32;98806.69;;;7.37;94.50
59106;BME280;44891;50.204;8.132;2023-04-30T05:31:35;98806.66;;;7.50;94.14
59106;BME280;44891;50.204;8.132;2023-04-30T05:35:37;98812.69;;;7.51;95.01
59106;BME280;44891;50.204;8.132;2023-04-30T05:39:39;98806.66;;;7.50;95.80
59106;BME280;44891;50.204;8.132;2023-04-30T05:43:41;98807.88;;;7.61;96.96
59106;BME280;44891;50.204;8.132;2023-04-30T05:47:44;98813.84;;;7.81;96.88
59106;BME280;44891;50.204;8.132;2023-04-30T05:51:46;98818.19;;;8.07;96.22
59106;BME280;44891;50.204;8.132;2023-04-30T05:55:48;98813.53;;;8.16;97.41
59106;BME280;44891;50.204;8.132;2023-04-30T05:59:50;98816.91;;;8.23;100.00
59106;BME280;44891;50.204;8.132;2023-04-30T06:03:53;98814.72;;;8.20;100.00
59106;BME280;44891;50.204;8.132;2023-04-30T06:07:55;98815.69;;;8.39;100.00
59106;BME280;44891;50.204;8.132;2023-04-30T06:11:57;98820.16;;;8.63;100.00
59106;BME280;44891;50.204;8.132;2023-04-30T06:15:58;98818.22;;;8.84;100.00
59106;BME280;44891;50.204;8.132;2023-04-30T06:20:02;98815.91;;;9.01;100.00
59106;BME280;44891;50.204;8.132;2023-04-30T06:24:06;98815.75;;;9.20;100.00
59106;BME280;44891;50.204;8.132;2023-04-30T06:28:08;98816.66;;;9.33;100.00
59106;BME280;44891;50.204;8.132;2023-04-30T06:32:10;98819.97;;;9.46;100.00
59106;BME280;44891;50.204;8.132;2023-04-30T06:36:13;98782.81;;;9.31;99.85
59106;BME280;44891;50.204;8.132;2023-04-30T06:40:15;98827.13;;;9.76;97.33
59106;BME280;44891;50.204;8.132;2023-04-30T06:44:16;98818.56;;;9.87;95.21
59106;BME280;44891;50.204;8.132;2023-04-30T06:48:18;98815.63;;;9.95;94.25
59106;BME280;44891;50.204;8.132;2023-04-30T06:52:22;98822.06;;;10.18;91.84
59106;BME280;44891;50.204;8.132;2023-04-30T06:56:24;98827.97;;;10.31;88.76
59106;BME280;44891;50.204;8.132;2023-04-30T07:00:26;98824.47;;;10.38;85.86
59106;BME280;44891;50.204;8.132;2023-04-30T07:04:28;98817.94;;;10.58;81.70
59106;BME280;44891;50.204;8.132;2023-04-30T07:08:31;98817.78;;;10.83;81.71
59106;BME280;44891;50.204;8.132;2023-04-30T07:12:33;98808.59;;;11.16;77.68
59106;BME280;44891;50.204;8.132;2023-04-30T07:16:35;98810.31;;;11.46;77.70
59106;BME280;44891;50.204;8.132;2023-04-30T07:20:37;98802.06;;;11.65;73.26
59106;BME280;44891;50.204;8.132;2023-04-30T07:24:40;98802.06;;;11.77;71.62
59106;BME280;44891;50.204;8.132;2023-04-30T07:28:42;98800.78;;;12.03;69.28
59106;BME280;44891;50.204;8.132;2023-04-30T07:32:44;98803.97;;;12.17;67.90
59106;BME280;44891;50.204;8.132;2023-04-30T07:36:46;98801.06;;;12.30;67.25
59106;BME280;44891;50.204;8.132;2023-04-30T07:40:49;98801.34;;;12.45;65.36
59106;BME280;44891;50.204;8.132;2023-04-30T07:44:51;98799.94;;;12.55;65.41
59106;BME280;44891;50.204;8.132;2023-04-30T07:48:53;98799.94;;;12.71;64.29
59106;BME280;44891;50.204;8.132;2023-04-30T07:52:55;98799.41;;;12.86;64.66
59106;BME280;44891;50.204;8.132;2023-04-30T07:56:58;98805.91;;;12.95;61.42
59106;BME280;44891;50.204;8.132;2023-04-30T08:01:00;98796.41;;;13.11;58.69
59106;BME280;44891;50.204;8.132;2023-04-30T08:05:02;98793.72;;;13.23;59.63
59106;BME280;44891;50.204;8.132;2023-04-30T08:09:05;98793.63;;;13.35;58.72
59106;BME280;44891;50.204;8.132;2023-04-30T08:13:08;98790.13;;;13.29;57.06
59106;BME280;44891;50.204;8.132;2023-04-30T08:17:10;98794.13;;;13.53;57.62
59106;BME280;44891;50.204;8.132;2023-04-30T08:21:12;98791.72;;;13.69;58.50
59106;BME280;44891;50.204;8.132;2023-04-30T08:25:14;98794.25;;;13.80;56.97
59106;BME280;44891;50.204;8.132;2023-04-30T08:29:17;98783.75;;;13.85;56.20
59106;BME280;44891;50.204;8.132;2023-04-30T08:33:19;98778.47;;;14.07;56.30
59106;BME280;44891;50.204;8.132;2023-04-30T08:37:21;98779.69;;;14.22;54.43
59106;BME280;44891;50.204;8.132;2023-04-30T08:41:24;98779.84;;;14.37;52.58
59106;BME280;44891;50.204;8.132;2023-04-30T08:45:28;98778.41;;;14.46;51.67
59106;BME280;44891;50.204;8.132;2023-04-30T08:49:30;98779.22;;;14.52;50.59
59106;BME280;44891;50.204;8.132;2023-04-30T08:53:33;98784.31;;;14.58;50.78
59106;BME280;44891;50.204;8.132;2023-04-30T08:57:35;98784.09;;;14.60;51.16
59106;BME280;44891;50.204;8.132;2023-04-30T09:01:40;98787.28;;;14.62;49.92
59106;BME280;44891;50.204;8.132;2023-04-30T09:05:42;98780.56;;;14.81;49.73
59106;BME280;44891;50.204;8.132;2023-04-30T09:09:43;98755.34;;;14.68;47.20
59106;BME280;44891;50.204;8.132;2023-04-30T09:13:45;98779.44;;;15.04;47.75
59106;BME280;44891;50.204;8.132;2023-04-30T09:17:49;98781.69;;;15.22;47.43
59106;BME280;44891;50.204;8.132;2023-04-30T09:21:50;98773.31;;;15.36;47.74
59106;BME280;44891;50.204;8.132;2023-04-30T09:25:52;98767.28;;;15.45;47.50
59106;BME280;44891;50.204;8.132;2023-04-30T09:29:54;98782.72;;;15.59;45.99
59106;BME280;44891;50.204;8.132;2023-04-30T09:33:57;98768.09;;;15.46;46.10
59106;BME280;44891;50.204;8.132;2023-04-30T09:38:02;98767.34;;;15.56;45.81
59106;BME280;44891;50.204;8.132;2023-04-30T09:42:06;98759.78;;;15.74;46.33
59106;BME280;44891;50.204;8.132;2023-04-30T09:46:09;98756.09;;;15.75;46.22
59106;BME280;44891;50.204;8.132;2023-04-30T09:50:13;98752.09;;;15.73;46.00
59106;BME280;44891;50.204;8.132;2023-04-30T09:54:15;98747.41;;;15.95;45.63
59106;BME280;44891;50.204;8.132;2023-04-30T09:58:18;98739.25;;;16.07;45.56
59106;BME280;44891;50.204;8.132;2023-04-30T10:02:20;98744.09;;;16.41;46.53
59106;BME280;44891;50.204;8.132;2023-04-30T10:06:24;98742.81;;;16.58;45.88
59106;BME280;44891;50.204;8.132;2023-04-30T10:10:28;98747.06;;;16.70;44.55
59106;BME280;44891;50.204;8.132;2023-04-30T10:14:31;98739.09;;;16.65;43.55
59106;BME280;44891;50.204;8.132;2023-04-30T10:18:36;98736.69;;;16.48;43.11
59106;BME280;44891;50.204;8.132;2023-04-30T10:22:41;98735.66;;;16.64;43.67
59106;BME280;44891;50.204;8.132;2023-04-30T10:26:44;98725.03;;;16.90;43.49
59106;BME280;44891;50.204;8.132;2023-04-30T10:30:45;98717.88;;;16.95;43.91
59106;BME280;44891;50.204;8.132;2023-04-30T10:34:49;98714.16;;;16.96;43.68
59106;BME280;44891;50.204;8.132;2023-04-30T10:38:54;98708.28;;;17.25;44.73
59106;BME280;44891;50.204;8.132;2023-04-30T10:42:57;98705.81;;;17.54;42.98
59106;BME280;44891;50.204;8.132;2023-04-30T10:46:59;98708.25;;;17.40;42.37
59106;BME280;44891;50.204;8.132;2023-04-30T10:51:02;98696.22;;;17.63;43.53
59106;BME280;44891;50.204;8.132;2023-04-30T10:55:06;98698.16;;;18.07;42.08
59106;BME280;44891;50.204;8.132;2023-04-30T10:59:08;98690.34;;;18.26;42.63
59106;BME280;44891;50.204;8.132;2023-04-30T11:03:10;98691.59;;;18.33;40.05
59106;BME280;44891;50.204;8.132;2023-04-30T11:07:11;98688.97;;;18.28;39.94
59106;BME280;44891;50.204;8.132;2023-04-30T11:11:18;98678.44;;;18.18;40.45
59106;BME280;44891;50.204;8.132;2023-04-30T11:15:23;98675.94;;;18.32;40.34
59106;BME280;44891;50.204;8.132;2023-04-30T11:19:25;98677.94;;;18.50;40.52
59106;BME280;44891;50.204;8.132;2023-04-30T11:23:28;98682.88;;;18.62;40.95
59106;BME280;44891;50.204;8.132;2023-04-30T11:27:31;98658.38;;;18.36;40.53
59106;BME280;44891;50.204;8.132;2023-04-30T11:31:33;98655.66;;;18.75;39.02
59106;BME280;44891;50.204;8.132;2023-04-30T11:35:35;98651.69;;;18.72;40.68
59106;BME280;44891;50.204;8.132;2023-04-30T11:39:37;98660.47;;;18.39;40.77
59106;BME280;44891;50.204;8.132;2023-04-30T11:43:41;98654.31;;;18.78;41.25
59106;BME280;44891;50.204;8.132;2023-04-30T11:47:44;98647.78;;;19.18;39.75
59106;BME280;44891;50.204;8.132;2023-04-30T11:51:47;98647.69;;;19.71;41.05
59106;BME280;44891;50.204;8.132;2023-04-30T11:55:49;98641.38;;;19.43;40.10
59106;BME280;44891;50.204;8.132;2023-04-30T11:59:53;98637.97;;;19.13;40.49
59106;BME280;44891;50.204;8.132;2023-04-30T12:03:55;98642.38;;;19.90;40.62
59106;BME280;44891;50.204;8.132;2023-04-30T12:07:58;98641.16;;;20.01;39.39
59106;BME280;44891;50.204;8.132;2023-04-30T12:12:00;98634.88;;;20.10;39.12
59106;BME280;44891;50.204;8.132;2023-04-30T12:16:04;98625.84;;;20.06;38.30
59106;BME280;44891;50.204;8.132;2023-04-30T12:20:07;98632.84;;;19.65;38.88
59106;BME280;44891;50.204;8.132;2023-04-30T12:24:09;98633.44;;;19.14;39.69
59106;BME280;44891;50.204;8.132;2023-04-30T12:28:11;98622.06;;;19.51;40.29
59106;BME280;44891;50.204;8.132;2023-04-30T12:32:14;98632.44;;;20.14;39.71
59106;BME280;44891;50.204;8.132;2023-04-30T12:36:18;98628.81;;;20.24;38.08
59106;BME280;44891;50.204;8.132;2023-04-30T12:40:21;98631.41;;;20.10;39.09
59106;BME280;44891;50.204;8.132;2023-04-30T12:44:27;98634.22;;;20.19;38.24
59106;BME280;44891;50.204;8.132;2023-04-30T12:48:30;98618.97;;;20.38;38.21
59106;BME280;44891;50.204;8.132;2023-04-30T12:52:43;98615.59;;;20.14;37.68
59106;BME280;44891;50.204;8.132;2023-04-30T12:56:55;98618.47;;;20.69;37.58
59106;BME280;44891;50.204;8.132;2023-04-30T13:00:57;98614.66;;;20.88;36.97
59106;BME280;44891;50.204;8.132;2023-04-30T13:05:01;98605.94;;;21.24;36.57
59106;BME280;44891;50.204;8.132;2023-04-30T13:09:03;98590.31;;;20.90;36.81
59106;BME280;44891;50.204;8.132;2023-04-30T13:13:05;98582.69;;;21.11;36.90
59106;BME280;44891;50.204;8.132;2023-04-30T13:17:06;98580.94;;;21.06;37.57
59106;BME280;44891;50.204;8.132;2023-04-30T13:21:11;98586.81;;;20.48;36.39
59106;BME280;44891;50.204;8.132;2023-04-30T13:25:13;98574.09;;;19.75;38.30
59106;BME280;44891;50.204;8.132;2023-04-30T13:29:15;98572.47;;;19.93;39.07
59106;BME280;44891;50.204;8.132;2023-04-30T13:33:17;98568.66;;;20.78;38.11
59106;BME280;44891;50.204;8.132;2023-04-30T13:37:20;98566.00;;;21.33;36.12
59106;BME280;44891;50.204;8.132;2023-04-30T13:41:22;98562.09;;;21.39;35.31
59106;BME280;44891;50.204;8.132;2023-04-30T13:45:25;98568.78;;;21.00;35.88
59106;BME280;44891;50.204;8.132;2023-04-30T13:49:27;98560.16;;;20.62;36.65
59106;BME280;44891;50.204;8.132;2023-04-30T13:53:30;98559.44;;;20.56;36.04
59106;BME280;44891;50.204;8.132;2023-04-30T13:57:32;98559.28;;;20.80;36.17
59106;BME280;44891;50.204;8.132;2023-04-30T14:01:34;98539.78;;;20.80;36.67
59106;BME280;44891;50.204;8.132;2023-04-30T14:05:36;98536.50;;;21.10;35.95
59106;BME280;44891;50.204;8.132;2023-04-30T14:09:39;98531.78;;;21.57;34.70
59106;BME280;44891;50.204;8.132;2023-04-30T14:13:41;98537.72;;;20.90;36.97
59106;BME280;44891;50.204;8.132;2023-04-30T14:17:43;98538.91;;;20.57;37.27
59106;BME280;44891;50.204;8.132;2023-04-30T14:21:44;98526.56;;;20.15;37.62
59106;BME280;44891;50.204;8.132;2023-04-30T14:25:48;98530.31;;;19.81;37.74
59106;BME280;44891;50.204;8.132;2023-04-30T14:29:50;98519.13;;;19.60;38.34
59106;BME280;44891;50.204;8.132;2023-04-30T14:33:52;98522.41;;;20.82;37.55
59106;BME280;44891;50.204;8.132;2023-04-30T14:37:54;98501.53;;;20.57;36.15
59106;BME280;44891;50.204;8.132;2023-04-30T14:41:58;98511.50;;;20.92;36.64
59106;BME280;44891;50.204;8.132;2023-04-30T14:46:01;98507.41;;;21.59;34.38
59106;BME280;44891;50.204;8.132;2023-04-30T14:50:03;98497.16;;;21.75;34.15
59106;BME280;44891;50.204;8.132;2023-04-30T14:54:05;98496.97;;;21.49;34.72
59106;BME280;44891;50.204;8.132;2023-04-30T14:58:08;98491.13;;;20.97;37.11
59106;BME280;44891;50.204;8.132;2023-04-30T15:02:10;98495.38;;;20.43;37.12
59106;BME280;44891;50.204;8.132;2023-04-30T15:06:11;98493.53;;;20.71;36.90
59106;BME280;44891;50.204;8.132;2023-04-30T15:10:24;98489.50;;;20.13;37.52
59106;BME280;44891;50.204;8.132;2023-04-30T15:14:27;98478.50;;;21.83;35.89
59106;BME280;44891;50.204;8.132;2023-04-30T15:18:29;98473.75;;;22.73;33.58
59106;BME280;44891;50.204;8.132;2023-04-30T15:22:31;98455.25;;;23.64;32.32
59106;BME280;44891;50.204;8.132;2023-04-30T15:26:33;98471.06;;;24.21;32.14
59106;BME280;44891;50.204;8.132;2023-04-30T15:30:37;98469.09;;;22.48;33.05
59106;BME280;44891;50.204;8.132;2023-04-30T15:34:38;98470.47;;;22.06;34.17
59106;BME280;44891;50.204;8.132;2023-04-30T15:38:40;98468.84;;;21.29;35.14
59106;BME280;44891;50.204;8.132;2023-04-30T15:42:42;98463.47;;;20.51;36.97
59106;BME280;44891;50.204;8.132;2023-04-30T15:46:45;98472.09;;;20.02;38.13
59106;BME280;44891;50.204;8.132;2023-04-30T15:50:48;98461.16;;;19.71;39.43
59106;BME280;44891;50.204;8.132;2023-04-30T15:54:50;98462.53;;;19.49;38.65
59106;BME280;44891;50.204;8.132;2023-04-30T15:58:51;98458.34;;;19.81;37.98
59106;BME280;44891;50.204;8.132;2023-04-30T16:02:55;98453.69;;;19.35;39.17
59106;BME280;44891;50.204;8.132;2023-04-30T16:06:57;98448.09;;;19.18;40.02
59106;BME280;44891;50.204;8.132;2023-04-30T16:10:59;98443.34;;;18.96;40.19
59106;BME280;44891;50.204;8.132;2023-04-30T16:15:01;98444.63;;;18.98;40.45
59106;BME280;44891;50.204;8.132;2023-04-30T16:19:05;98448.56;;;18.82;41.37
59106;BME280;44891;50.204;8.132;2023-04-30T16:23:09;98446.09;;;18.43;41.62
59106;BME280;44891;50.204;8.132;2023-04-30T16:27:10;98443.88;;;18.26;41.87
59106;BME280;44891;50.204;8.132;2023-04-30T16:31:12;98439.78;;;18.10;41.90
59106;BME280;44891;50.204;8.132;2023-04-30T16:35:16;98437.69;;;18.07;42.63
59106;BME280;44891;50.204;8.132;2023-04-30T16:39:18;98427.34;;;18.05;42.68
59106;BME280;44891;50.204;8.132;2023-04-30T16:43:20;98423.00;;;17.85;43.08
59106;BME280;44891;50.204;8.132;2023-04-30T16:47:22;98428.63;;;17.84;43.81
59106;BME280;44891;50.204;8.132;2023-04-30T16:51:25;98427.03;;;17.83;44.30
59106;BME280;44891;50.204;8.132;2023-04-30T16:55:27;98415.75;;;17.96;42.22
59106;BME280;44891;50.204;8.132;2023-04-30T16:59:29;98415.66;;;18.30;42.39
59106;BME280;44891;50.204;8.132;2023-04-30T17:03:31;98416.94;;;18.33;41.39
59106;BME280;44891;50.204;8.132;2023-04-30T17:07:35;98415.34;;;18.08;41.92
59106;BME280;44891;50.204;8.132;2023-04-30T17:11:37;98408.31;;;17.93;42.42
59106;BME280;44891;50.204;8.132;2023-04-30T17:15:38;98402.38;;;17.77;42.89
59106;BME280;44891;50.204;8.132;2023-04-30T17:19:40;98413.16;;;17.57;43.39
59106;BME280;44891;50.204;8.132;2023-04-30T17:23:43;98414.81;;;17.48;43.41
59106;BME280;44891;50.204;8.132;2023-04-30T17:27:45;98418.69;;;17.26;43.48
59106;BME280;44891;50.204;8.132;2023-04-30T17:31:47;98415.09;;;17.07;44.05
59106;BME280;44891;50.204;8.132;2023-04-30T17:35:49;98405.09;;;16.94;44.81
59106;BME280;44891;50.204;8.132;2023-04-30T17:39:52;98416.78;;;16.88;45.14
59106;BME280;44891;50.204;8.132;2023-04-30T17:43:54;98418.16;;;16.85;45.62
59106;BME280;44891;50.204;8.132;2023-04-30T17:47:56;98410.75;;;16.77;45.20
59106;BME280;44891;50.204;8.132;2023-04-30T17:51:58;98404.13;;;16.69;45.88
59106;BME280;44891;50.204;8.132;2023-04-30T17:56:02;98404.47;;;16.57;46.46
59106;BME280;44891;50.204;8.132;2023-04-30T18:00:04;98403.78;;;16.31;47.58
59106;BME280;44891;50.204;8.132;2023-04-30T18:04:16;98401.91;;;16.27;47.64
59106;BME280;44891;50.204;8.132;2023-04-30T18:08:18;98397.69;;;16.21;48.06
59106;BME280;44891;50.204;8.132;2023-04-30T18:12:22;98403.84;;;16.11;48.26
59106;BME280;44891;50.204;8.132;2023-04-30T18:16:25;98404.13;;;16.04;48.53
59106;BME280;44891;50.204;8.132;2023-04-30T18:20:27;98404.63;;;15.96;49.37
59106;BME280;44891;50.204;8.132;2023-04-30T18:24:28;98397.25;;;15.83;50.29
59106;BME280;44891;50.204;8.132;2023-04-30T18:28:32;98401.75;;;15.77;51.13
59106;BME280;44891;50.204;8.132;2023-04-30T18:32:34;98394.06;;;15.61;51.41
59106;BME280;44891;50.204;8.132;2023-04-30T18:36:36;98397.25;;;15.53;53.01
59106;BME280;44891;50.204;8.132;2023-04-30T18:40:38;98395.38;;;15.38;52.65
59106;BME280;44891;50.204;8.132;2023-04-30T18:44:41;98396.47;;;15.27;51.65
59106;BME280;44891;50.204;8.132;2023-04-30T18:48:43;98398.84;;;15.13;52.18
59106;BME280;44891;50.204;8.132;2023-04-30T18:52:45;98401.72;;;15.06;52.09
59106;BME280;44891;50.204;8.132;2023-04-30T18:56:47;98406.19;;;14.95;52.70
59106;BME280;44891;50.204;8.132;2023-04-30T19:00:50;98408.53;;;14.82;53.22
59106;BME280;44891;50.204;8.132;2023-04-30T19:04:52;98415.91;;;14.69;55.85
59106;BME280;44891;50.204;8.132;2023-04-30T19:08:54;98414.19;;;14.43;57.90
59106;BME280;44891;50.204;8.132;2023-04-30T19:12:58;98416.97;;;14.16;57.95
59106;BME280;44891;50.204;8.132;2023-04-30T19:17:01;98415.00;;;13.96;58.45
59106;BME280;44891;50.204;8.132;2023-04-30T19:21:03;98421.16;;;13.70;59.35
59106;BME280;44891;50.204;8.132;2023-04-30T19:25:05;98426.69;;;13.36;59.28
59106;BME280;44891;50.204;8.132;2023-04-30T19:29:07;98436.09;;;13.27;61.50
59106;BME280;44891;50.204;8.132;2023-04-30T19:33:10;98436.09;;;13.27;62.04
59106;BME280;44891;50.204;8.132;2023-04-30T19:37:12;98438.34;;;13.18;62.05
59106;BME280;44891;50.204;8.132;2023-04-30T19:41:14;98438.69;;;13.00;62.39
59106;BME280;44891;50.204;8.132;2023-04-30T19:45:16;98442.75;;;12.86;62.33
59106;BME280;44891;50.204;8.132;2023-04-30T19:49:19;98440.44;;;12.89;62.39
59106;BME280;44891;50.204;8.132;2023-04-30T19:53:23;98442.97;;;12.57;63.46
59106;BME280;44891;50.204;8.132;2023-04-30T19:57:25;98436.94;;;12.40;64.55
59106;BME280;44891;50.204;8.132;2023-04-30T20:01:27;98439.59;;;12.40;65.14
59106;BME280;44891;50.204;8.132;2023-04-30T20:05:31;98446.25;;;12.25;65.61
59106;BME280;44891;50.204;8.132;2023-04-30T20:09:34;98444.72;;;12.30;65.14
59106;BME280;44891;50.204;8.132;2023-04-30T20:13:36;98443.91;;;11.90;65.88
59106;BME280;44891;50.204;8.132;2023-04-30T20:17:38;98445.78;;;11.61;67.54
59106;BME280;44891;50.204;8.132;2023-04-30T20:21:42;98444.63;;;11.69;67.41
59106;BME280;44891;50.204;8.132;2023-04-30T20:25:44;98440.47;;;11.56;68.06
59106;BME280;44891;50.204;8.132;2023-04-30T20:29:46;98439.63;;;11.39;68.48
59106;BME280;44891;50.204;8.132;2023-04-30T20:33:48;98436.47;;;11.54;68.59
59106;BME280;44891;50.204;8.132;2023-04-30T20:37:52;98431.31;;;11.76;67.94
59106;BME280;44891;50.204;8.132;2023-04-30T20:41:55;98439.66;;;11.73;68.17
59106;BME280;44891;50.204;8.132;2023-04-30T20:45:58;98434.63;;;11.54;68.86
59106;BME280;44891;50.204;8.132;2023-04-30T20:50:00;98433.75;;;11.49;68.67
59106;BME280;44891;50.204;8.132;2023-04-30T20:54:04;98425.44;;;11.40;69.33
59106;BME280;44891;50.204;8.132;2023-04-30T20:58:08;98433.47;;;11.16;69.90
59106;BME280;44891;50.204;8.132;2023-04-30T21:02:10;98439.84;;;11.21;70.30
59106;BME280;44891;50.204;8.132;2023-04-30T21:06:11;98436.06;;;11.00;70.70
59106;BME280;44891;50.204;8.132;2023-04-30T21:10:16;98433.84;;;11.08;71.01
59106;BME280;44891;50.204;8.132;2023-04-30T21:14:18;98437.84;;;11.11;71.02
59106;BME280;44891;50.204;8.132;2023-04-30T21:18:20;98431.59;;;11.00;71.36
59106;BME280;44891;50.204;8.132;2023-04-30T21:22:22;98424.38;;;10.79;71.93
59106;BME280;44891;50.204;8.132;2023-04-30T21:26:25;98424.13;;;10.80;71.89
59106;BME280;44891;50.204;8.132;2023-04-30T21:30:27;98424.03;;;10.75;73.03